createdAt,value
2023-04-12T00:01:28.307Z,18.41
2023-04-12T00:06:34.812Z,17.91
2023-04-12T00:11:39.107Z,17.80
2023-04-12T00:16:43.831Z,17.59
2023-04-12T00:21:51.115Z,17.47
2023-04-12T00:26:59.687Z,17.35
2023-04-12T00:32:04.376Z,17.14
2023-04-12T00:37:13.213Z,17.03
2023-04-12T00:42:17.123Z,16.75
2023-04-12T00:47:25.252Z,16.80
2023-04-12T00:52:31.285Z,16.95
2023-04-12T00:57:37.245Z,17.05
2023-04-12T01:02:44.869Z,16.53
2023-04-12T01:07:56.910Z,16.11
2023-04-12T01:13:11.651Z,15.79
2023-04-12T01:18:19.467Z,15.31
2023-04-12T01:23:44.213Z,14.77
2023-04-12T01:28:53.796Z,14.56
2023-04-12T01:33:59.961Z,14.23
2023-04-12T01:39:05.359Z,14.10
2023-04-12T01:44:22.961Z,14.09
2023-04-12T01:49:31.140Z,13.84
2023-04-12T01:54:41.160Z,13.72
2023-04-12T01:59:47.819Z,13.58
2023-04-12T02:04:54.091Z,13.06
2023-04-12T02:09:57.855Z,12.99
2023-04-12T02:15:03.698Z,12.97
2023-04-12T02:20:08.888Z,12.84
2023-04-12T02:25:12.632Z,12.72
2023-04-12T02:30:19.557Z,12.67
2023-04-12T02:35:23.348Z,12.64
2023-04-12T02:40:27.160Z,12.55
2023-04-12T02:45:32.435Z,12.26
2023-04-12T02:50:38.205Z,12.25
2023-04-12T02:55:41.801Z,12.23
2023-04-12T03:00:47.198Z,11.87
2023-04-12T03:05:50.836Z,11.89
2023-04-12T03:10:54.445Z,11.83
2023-04-12T03:16:01.185Z,11.91
2023-04-12T03:21:05.890Z,11.76
2023-04-12T03:26:10.709Z,11.69
2023-04-12T03:31:16.033Z,11.77
2023-04-12T03:36:19.666Z,11.74
2023-04-12T03:41:23.700Z,11.49
2023-04-12T03:46:29.172Z,11.45
2023-04-12T03:51:33.034Z,11.48
2023-04-12T03:56:37.225Z,11.46
2023-04-12T04:01:43.140Z,11.63
2023-04-12T04:06:47.065Z,11.68
2023-04-12T04:11:50.659Z,11.59
2023-04-12T04:16:55.930Z,11.69
2023-04-12T04:21:59.741Z,11.32
2023-04-12T04:27:03.375Z,11.39
2023-04-12T04:32:10.004Z,11.44
2023-04-12T04:37:14.932Z,11.62
2023-04-12T04:42:18.796Z,11.62
2023-04-12T04:47:24.166Z,11.79
2023-04-12T04:52:27.946Z,11.73
2023-04-12T04:57:31.674Z,11.78
2023-04-12T05:02:38.941Z,11.70
2023-04-12T05:07:42.847Z,11.70
2023-04-12T05:12:46.650Z,11.60
2023-04-12T05:17:52.699Z,11.64
2023-04-12T05:22:56.465Z,11.37
2023-04-12T05:28:00.128Z,11.63
2023-04-12T05:33:05.479Z,11.64
2023-04-12T05:38:09.278Z,11.49
2023-04-12T05:43:13.022Z,11.55
2023-04-12T05:48:19.368Z,11.53
2023-04-12T05:53:23.404Z,11.55
2023-04-12T05:58:27.007Z,11.47
2023-04-12T06:03:32.581Z,11.48
2023-04-12T06:08:36.686Z,11.42
2023-04-12T06:13:40.768Z,11.40
2023-04-12T06:18:46.179Z,11.19
2023-04-12T06:23:49.984Z,11.11
2023-04-12T06:28:53.704Z,11.06
2023-04-12T06:33:59.855Z,10.96
2023-04-12T06:39:02.767Z,10.74
2023-04-12T06:44:06.393Z,10.68
2023-04-12T06:49:11.769Z,10.66
2023-04-12T06:54:15.682Z,10.71
2023-04-12T06:59:19.294Z,10.76
2023-04-12T07:04:24.554Z,10.72
2023-04-12T07:09:28.224Z,10.55
2023-04-12T07:14:32.581Z,10.50
2023-04-12T07:19:37.935Z,10.34
2023-04-12T07:24:41.579Z,10.48
2023-04-12T07:29:45.244Z,10.28
2023-04-12T07:34:50.514Z,10.04
2023-04-12T07:39:54.122Z,9.95
2023-04-12T07:44:57.919Z,9.87
2023-04-12T07:50:03.463Z,9.75
2023-04-12T07:55:07.478Z,9.90
2023-04-12T08:00:12.039Z,9.61
2023-04-12T08:05:17.361Z,9.59
2023-04-12T08:10:20.975Z,9.60
2023-04-12T08:15:24.643Z,9.54
2023-04-12T08:20:29.943Z,9.44
2023-04-12T08:25:33.564Z,9.23
2023-04-12T08:30:37.196Z,8.96
2023-04-12T08:35:42.453Z,9.00
2023-04-12T08:40:46.830Z,9.03
2023-04-12T08:45:51.728Z,9.02
2023-04-12T08:50:57.816Z,9.11
2023-04-12T08:56:01.785Z,9.23
2023-04-12T09:01:08.263Z,9.13
2023-04-12T09:06:16.527Z,9.10
2023-04-12T09:11:24.909Z,9.21
2023-04-12T09:16:38.889Z,9.20
2023-04-12T09:21:53.947Z,9.09
2023-04-12T09:27:04.456Z,9.19
2023-04-12T09:32:10.286Z,9.20
2023-04-12T09:37:18.424Z,9.17
2023-04-12T09:42:33.302Z,9.38
2023-04-12T09:47:38.748Z,9.44
2023-04-12T09:52:44.317Z,9.51
2023-04-12T09:57:50.842Z,9.54
2023-04-12T10:02:55.893Z,9.51
2023-04-12T10:08:01.592Z,9.53
2023-04-12T10:13:06.372Z,9.58
2023-04-12T10:18:12.554Z,9.49
2023-04-12T10:23:18.858Z,9.45
2023-04-12T10:28:22.553Z,9.40
2023-04-12T10:33:28.595Z,9.33
2023-04-12T10:38:48.503Z,9.33
2023-04-12T10:43:52.558Z,9.30
2023-04-12T10:48:56.495Z,9.23
2023-04-12T10:54:29.157Z,9.19
2023-04-12T10:59:57.728Z,9.17
2023-04-12T11:05:09.130Z,9.08
2023-04-12T11:10:17.639Z,9.02
2023-04-12T11:15:27.401Z,8.89
2023-04-12T11:20:32.258Z,8.88
2023-04-12T11:25:36.750Z,8.92
2023-04-12T11:30:50.691Z,8.88
2023-04-12T11:35:54.381Z,9.00
2023-04-12T11:40:58.037Z,9.10
2023-04-12T11:46:03.630Z,9.12
2023-04-12T11:51:21.108Z,9.31
2023-04-12T11:56:24.969Z,9.42
2023-04-12T12:01:30.756Z,9.34
2023-04-12T12:06:34.755Z,9.41
2023-04-12T12:11:38.622Z,9.45
2023-04-12T12:16:43.894Z,9.44
2023-04-12T12:21:47.499Z,9.41
2023-04-12T12:26:51.365Z,9.39
2023-04-12T12:31:56.765Z,9.33
2023-04-12T12:37:00.862Z,9.35
2023-04-12T12:42:04.572Z,9.36
2023-04-12T12:47:14.103Z,9.35
2023-04-12T12:52:18.368Z,9.35
2023-04-12T12:57:21.981Z,9.37
2023-04-12T13:02:27.438Z,9.32
2023-04-12T13:07:31.188Z,9.27
2023-04-12T13:12:34.878Z,9.17
2023-04-12T13:17:40.207Z,9.24
2023-04-12T13:22:43.857Z,9.28
2023-04-12T13:27:48.562Z,9.42
2023-04-12T13:32:54.913Z,9.37
2023-04-12T13:37:58.683Z,9.25
2023-04-12T13:43:02.430Z,9.23
2023-04-12T13:48:07.820Z,9.41
2023-04-12T13:53:11.551Z,9.33
2023-04-12T13:58:15.223Z,9.41
2023-04-12T14:03:20.658Z,9.42
2023-04-12T14:08:25.014Z,9.46
2023-04-12T14:13:28.766Z,9.57
2023-04-12T14:18:34.181Z,9.81
2023-04-12T14:23:37.898Z,10.09
2023-04-12T14:28:41.533Z,10.26
2023-04-12T14:33:47.326Z,10.51
2023-04-12T14:38:51.173Z,10.77
2023-04-12T14:43:54.807Z,10.98
2023-04-12T14:49:00.222Z,11.28
2023-04-12T14:54:03.974Z,11.48
2023-04-12T14:59:07.612Z,11.48
2023-04-12T15:04:13.161Z,11.95
2023-04-12T15:09:17.030Z,12.36
2023-04-12T15:14:20.844Z,12.70
2023-04-12T15:19:26.320Z,13.07
2023-04-12T15:24:30.088Z,13.29
2023-04-12T15:29:35.023Z,13.96
2023-04-12T15:34:40.346Z,14.39
2023-04-12T15:39:43.978Z,14.69
2023-04-12T15:44:47.616Z,15.16
2023-04-12T15:49:52.869Z,15.61
2023-04-12T15:54:56.458Z,16.25
2023-04-12T16:00:00.152Z,16.82
2023-04-12T16:05:05.888Z,17.32
2023-04-12T16:10:10.469Z,17.45
2023-04-12T16:15:14.102Z,17.93
2023-04-12T16:20:19.645Z,18.30
2023-04-12T16:25:23.662Z,17.99
2023-04-12T16:30:27.370Z,17.84
2023-04-12T16:35:32.736Z,18.42
2023-04-12T16:40:36.369Z,18.79
2023-04-12T16:45:40.057Z,18.97
2023-04-12T16:50:46.549Z,18.98
2023-04-12T16:55:50.185Z,18.83
2023-04-12T17:00:53.808Z,18.98
2023-04-12T17:05:59.101Z,18.47
2023-04-12T17:11:03.126Z,18.52
2023-04-12T17:16:07.544Z,18.26
2023-04-12T17:21:12.865Z,18.68
2023-04-12T17:26:16.820Z,18.28
2023-04-12T17:31:21.042Z,18.29
2023-04-12T17:36:26.429Z,18.00
2023-04-12T17:41:30.108Z,18.41
2023-04-12T17:46:33.943Z,19.00
2023-04-12T17:51:39.261Z,18.92
2023-04-12T17:56:43.456Z,18.77
2023-04-12T18:01:47.342Z,18.70
2023-04-12T18:06:52.673Z,18.84
2023-04-12T18:11:56.376Z,19.19
2023-04-12T18:17:00.073Z,19.35
2023-04-12T18:22:05.525Z,19.21
2023-04-12T18:27:09.231Z,19.25
2023-04-12T18:32:13.657Z,19.22
2023-04-12T18:37:19.033Z,19.03
2023-04-12T18:42:22.770Z,19.59
2023-04-12T18:47:27.377Z,19.78
2023-04-12T18:52:32.873Z,19.70
2023-04-12T18:57:36.520Z,19.84
2023-04-12T19:02:40.254Z,19.91
2023-04-12T19:07:45.666Z,20.16
2023-04-12T19:12:49.355Z,20.52
2023-04-12T19:17:53.087Z,20.30
2023-04-12T19:22:58.356Z,20.42
2023-04-12T19:28:02.044Z,20.76
2023-04-12T19:33:05.892Z,20.92
2023-04-12T19:38:11.346Z,21.00
2023-04-12T19:43:14.301Z,21.04
2023-04-12T19:48:17.876Z,21.08
2023-04-12T19:53:23.270Z,21.14
2023-04-12T19:58:27.006Z,21.01
2023-04-12T20:03:30.688Z,20.80
2023-04-12T20:08:37.089Z,20.72
2023-04-12T20:13:40.832Z,20.93
2023-04-12T20:18:44.642Z,20.52
2023-04-12T20:23:50.084Z,20.47
2023-04-12T20:28:52.902Z,20.48
2023-04-12T20:33:56.678Z,20.64
2023-04-12T20:39:02.077Z,20.72
2023-04-12T20:44:04.944Z,20.78
2023-04-12T20:49:08.558Z,20.70
2023-04-12T20:54:13.812Z,20.62
2023-04-12T20:59:17.457Z,20.61
2023-04-12T21:04:21.215Z,20.78
2023-04-12T21:09:26.596Z,20.47
2023-04-12T21:14:29.529Z,20.63
2023-04-12T21:19:33.564Z,20.19
2023-04-12T21:24:38.988Z,20.24
2023-04-12T21:29:42.729Z,19.73
2023-04-12T21:34:46.485Z,19.43
2023-04-12T21:39:51.867Z,19.51
2023-04-12T21:44:55.555Z,19.40
2023-04-12T21:49:59.274Z,19.48
2023-04-12T21:55:04.992Z,19.42
2023-04-12T22:00:09.630Z,19.27
2023-04-12T22:05:13.319Z,18.97
2023-04-12T22:10:18.757Z,19.15
2023-04-12T22:15:21.673Z,18.82
2023-04-12T22:20:25.275Z,18.80
2023-04-12T22:25:30.586Z,18.71
2023-04-12T22:30:37.193Z,18.73
2023-04-12T22:35:40.822Z,18.79
2023-04-12T22:40:47.426Z,18.83
2023-04-12T22:45:51.280Z,18.87
2023-04-12T22:50:55.034Z,18.62
2023-04-12T22:56:01.194Z,18.56
2023-04-12T23:01:05.134Z,18.32
2023-04-12T23:06:09.255Z,17.62
2023-04-12T23:11:14.563Z,17.25
2023-04-12T23:16:18.247Z,16.82
2023-04-12T23:21:21.969Z,16.72
2023-04-12T23:26:28.156Z,17.07
2023-04-12T23:31:31.900Z,17.25
2023-04-12T23:36:36.505Z,16.74
2023-04-12T23:41:42.922Z,16.72
2023-04-12T23:46:46.576Z,16.71
2023-04-12T23:51:50.348Z,16.56
2023-04-12T23:56:55.720Z,16.71
